Tropical Cyclones
[Index]
Main Index Home Page Stock Weather Photos Extreme Storms Discussion Storm News and Storm Chasing Reports Tropical Cyclones / Hurricanes / Typhoons Weather Data and Links Wild Fires / Bushfires Weather Observation Techniques Weather Picture Catalogue Tornado Pictures and Reports Stock Video Footage and DVDs for sale
Season 1980-1981 Tropical Cyclone EDNA Track Map
Season 1980-1981 Summaries: [BoM-AU] [JTWC-AU] [JTWC-SIO] [JTWC-SPAC] [JTWC-SH]
<<- Previous TC | BoM 1980-1981 Season | Next TC ->>

click for intensity scale information  Lat/long Grid: Show Hide

 Date Labels: Show Hide

Bureau of Meteorology Tropical Cyclone Data

Name: EDNA
Number: 612 / 198081_05

20 Dec 1980 00:00 UTC to 27 Dec 1980 00:00 UTC

    date/time    lat    long    hPa   cat  kts
1980-12-20 00   10.1   117.4   1005                     
1980-12-20 06    9.8   116.3   1005                     
1980-12-20 12   10.1   115.5   1004                     
1980-12-20 18   10.7   115.5   1004                     
1980-12-21 00   11.0   115.3   1004                     
1980-12-21 06   11.0   114.9   1004                     
1980-12-21 12   11.0   114.4   1004                     
1980-12-21 18   11.2   114.0   1003                     
1980-12-22 00   11.7   113.4   1003                     
1980-12-22 06   11.9   112.4   1003                     
1980-12-22 12   11.8   111.0   1002                     
1980-12-22 18   11.7   110.1   1001                     
1980-12-23 00   11.7   109.0   1001                     
1980-12-23 06   11.6   107.9   1000                     
1980-12-23 12   11.5   106.9    999                     
1980-12-23 18   11.3   105.9    996                     
1980-12-24 00   11.0   105.0    994    1                
1980-12-24 06   11.0   104.1    994    1                
1980-12-24 12   11.0   103.4    994    1                
1980-12-24 18   11.1   102.4    994    1                
1980-12-25 00   11.2   100.9    994    1                
1980-12-25 06   11.3    99.7    997                     
1980-12-25 12   11.3    98.5   1000                     
1980-12-25 18   11.3    97.2   1003                     
1980-12-26 00   11.0    95.9   1005                     
1980-12-26 06   10.6    95.2   1006                     
1980-12-26 12   10.4    94.5   1006                     
1980-12-26 18   10.3    93.8   1007                     
1980-12-27 00   10.1    93.0   1007                     
Winds are 10-min average.

Tropical cyclone tracks developed by Michael Bath using data from the Bureau of Meteorology and Google Maps.


[Australian Severe Weather index] [Copyright Notice] [Email Contacts] [Search This Site] [Privacy Policy]
Document: tropical_cyclone_edna.htm Updated: 30 May 2013